createdAt,value
2022-08-07T00:00:39.834Z,13.68
2022-08-07T00:03:47.227Z,13.67
2022-08-07T00:06:52.387Z,13.62
2022-08-07T00:10:19.196Z,13.55
2022-08-07T00:13:25.873Z,13.59
2022-08-07T00:16:31.087Z,13.59
2022-08-07T00:20:01.524Z,13.61
2022-08-07T00:23:00.354Z,13.64
2022-08-07T00:26:18.628Z,13.71
2022-08-07T00:29:32.171Z,13.66
2022-08-07T00:32:36.315Z,13.70
2022-08-07T00:35:40.886Z,13.73
2022-08-07T00:38:45.318Z,13.63
2022-08-07T00:42:02.282Z,13.76
2022-08-07T00:45:16.259Z,13.80
2022-08-07T00:48:25.046Z,13.61
2022-08-07T00:51:58.429Z,13.68
2022-08-07T00:55:05.002Z,13.73
2022-08-07T00:58:15.185Z,13.75
2022-08-07T01:01:20.344Z,13.75
2022-08-07T01:04:25.097Z,13.71
2022-08-07T01:07:31.245Z,13.66
2022-08-07T01:10:35.797Z,13.64
2022-08-07T01:13:40.723Z,13.70
2022-08-07T01:17:00.263Z,13.70
2022-08-07T01:20:16.548Z,13.71
2022-08-07T01:23:35.452Z,13.59
2022-08-07T01:26:43.418Z,13.66
2022-08-07T01:29:56.616Z,13.68
2022-08-07T01:33:02.266Z,13.58
2022-08-07T01:36:09.476Z,13.65
2022-08-07T01:39:14.553Z,13.70
2022-08-07T01:42:37.725Z,13.68
2022-08-07T01:45:46.706Z,13.60
2022-08-07T01:48:51.103Z,13.58
2022-08-07T01:52:02.625Z,13.59
2022-08-07T01:55:09.791Z,13.65
2022-08-07T01:58:33.403Z,13.62
2022-08-07T02:02:02.344Z,13.69
2022-08-07T02:05:16.103Z,13.69
2022-08-07T02:08:42.357Z,13.71
2022-08-07T02:12:04.032Z,13.73
2022-08-07T02:15:10.385Z,13.72
2022-08-07T02:18:18.221Z,13.75
2022-08-07T02:21:23.702Z,13.70
2022-08-07T02:24:30.424Z,13.71
2022-08-07T02:27:35.604Z,13.73
2022-08-07T02:30:46.486Z,13.75
2022-08-07T02:34:03.978Z,13.77
2022-08-07T02:37:16.430Z,13.76
2022-08-07T02:40:30.932Z,13.75
2022-08-07T02:43:41.162Z,13.76
2022-08-07T02:46:51.816Z,13.71
2022-08-07T02:49:59.652Z,13.67
2022-08-07T02:53:10.932Z,13.64
2022-08-07T02:56:21.747Z,13.62
2022-08-07T02:59:27.869Z,13.64
2022-08-07T03:02:33.810Z,13.62
2022-08-07T03:05:39.525Z,13.61
2022-08-07T03:08:46.244Z,13.62
2022-08-07T03:11:52.407Z,13.60
2022-08-07T03:15:07.476Z,13.60
2022-08-07T03:18:17.664Z,13.60
2022-08-07T03:21:25.281Z,13.58
2022-08-07T03:24:29.715Z,13.58
2022-08-07T03:27:58.683Z,13.57
2022-08-07T03:31:18.074Z,13.55
2022-08-07T03:34:22.964Z,13.57
2022-08-07T03:37:45.971Z,13.57
2022-08-07T03:40:53.899Z,13.54
2022-08-07T03:44:02.455Z,13.55
2022-08-07T03:47:10.837Z,13.56
2022-08-07T03:50:23.405Z,13.56
2022-08-07T03:53:30.324Z,13.57
2022-08-07T03:57:03.469Z,13.57
2022-08-07T04:00:10.485Z,13.54
2022-08-07T04:03:16.949Z,13.54
2022-08-07T04:06:37.258Z,13.53
2022-08-07T04:09:45.160Z,13.53
2022-08-07T04:12:55.275Z,13.49
2022-08-07T04:15:59.592Z,13.46
2022-08-07T04:19:12.594Z,13.44
2022-08-07T04:22:19.662Z,13.41
2022-08-07T04:25:29.170Z,13.41
2022-08-07T04:28:34.006Z,13.42
2022-08-07T04:32:03.345Z,13.41
2022-08-07T04:35:05.929Z,13.41
2022-08-07T04:38:13.213Z,13.41
2022-08-07T04:41:18.117Z,13.40
2022-08-07T04:44:23.625Z,13.43
2022-08-07T04:47:58.611Z,13.44
2022-08-07T04:51:28.670Z,13.49
2022-08-07T04:54:50.625Z,13.52
2022-08-07T04:58:15.730Z,13.57
2022-08-07T05:01:57.312Z,13.62
2022-08-07T05:05:53.831Z,13.66
2022-08-07T05:09:02.489Z,13.70
2022-08-07T05:12:10.202Z,13.73
2022-08-07T05:15:26.912Z,13.76
2022-08-07T05:18:35.333Z,13.81
2022-08-07T05:21:59.942Z,13.80
2022-08-07T05:25:08.672Z,13.87
2022-08-07T05:28:22.580Z,13.87
2022-08-07T05:31:38.534Z,13.90
2022-08-07T05:34:43.801Z,13.94
2022-08-07T05:37:48.475Z,13.98
2022-08-07T05:41:15.670Z,14.03
2022-08-07T05:44:29.047Z,14.03
2022-08-07T05:47:38.491Z,14.09
2022-08-07T05:51:01.376Z,14.17
2022-08-07T05:54:12.636Z,14.24
2022-08-07T05:57:37.756Z,14.30
2022-08-07T06:00:46.351Z,14.36
2022-08-07T06:04:01.123Z,14.50
2022-08-07T06:07:06.118Z,14.57
2022-08-07T06:10:15.264Z,14.64
2022-08-07T06:13:20.869Z,14.72
2022-08-07T06:16:50.488Z,14.81
2022-08-07T06:20:04.529Z,14.89
2022-08-07T06:23:46.869Z,14.94
2022-08-07T06:26:34.978Z,15.00
2022-08-07T06:29:39.272Z,14.98
2022-08-07T06:32:44.044Z,15.02
2022-08-07T06:36:12.973Z,15.13
2022-08-07T06:40:18.290Z,15.19
2022-08-07T06:42:40.337Z,15.24
2022-08-07T06:45:45.444Z,15.35
2022-08-07T06:48:50.153Z,15.43
2022-08-07T06:51:59.421Z,15.49
2022-08-07T06:55:34.547Z,15.57
2022-08-07T07:00:12.288Z,15.66
2022-08-07T07:02:49.312Z,15.76
2022-08-07T07:06:03.981Z,15.82
2022-08-07T07:09:19.490Z,15.91
2022-08-07T07:12:48.694Z,16.03
2022-08-07T07:16:03.118Z,16.07
2022-08-07T07:19:40.965Z,16.18
2022-08-07T07:24:05.218Z,16.26
2022-08-07T07:26:33.836Z,16.32
2022-08-07T07:29:56.559Z,16.37
2022-08-07T07:32:57.774Z,16.44
2022-08-07T07:36:05.048Z,16.54
2022-08-07T07:39:17.677Z,16.60
2022-08-07T07:42:32.584Z,16.60
2022-08-07T07:46:40.607Z,16.62
2022-08-07T07:49:08.895Z,16.64
2022-08-07T07:52:30.587Z,16.72
2022-08-07T07:55:45.389Z,16.82
2022-08-07T07:59:05.885Z,16.89
2022-08-07T08:02:11.561Z,16.89
2022-08-07T08:05:54.527Z,16.92
2022-08-07T08:09:02.183Z,16.99
2022-08-07T08:12:07.121Z,17.07
2022-08-07T08:15:11.575Z,17.11
2022-08-07T08:18:18.032Z,17.16
2022-08-07T08:21:55.925Z,17.24
2022-08-07T08:25:42.527Z,17.34
2022-08-07T08:28:49.230Z,17.43
2022-08-07T08:32:17.132Z,17.46
2022-08-07T08:35:28.740Z,17.44
2022-08-07T08:38:40.504Z,17.46
2022-08-07T08:41:59.209Z,17.49
2022-08-07T08:45:42.038Z,17.57
2022-08-07T08:49:18.728Z,17.73
2022-08-07T08:53:06.923Z,17.90
2022-08-07T08:56:24.687Z,18.08
2022-08-07T08:59:42.079Z,18.29
2022-08-07T09:03:03.908Z,18.36
2022-08-07T09:06:22.271Z,18.35
2022-08-07T09:09:56.877Z,18.19
2022-08-07T09:13:10.767Z,18.03
2022-08-07T09:16:30.393Z,17.92
2022-08-07T09:19:51.837Z,17.89
2022-08-07T09:24:33.137Z,17.86
2022-08-07T09:27:16.432Z,17.76
2022-08-07T09:30:27.932Z,17.70
2022-08-07T09:33:56.730Z,17.70
2022-08-07T09:37:33.544Z,17.70
2022-08-07T09:41:07.723Z,17.81
2022-08-07T09:44:58.426Z,17.93
2022-08-07T09:48:45.362Z,18.04
2022-08-07T09:52:16.384Z,17.97
2022-08-07T09:56:03.341Z,17.86
2022-08-07T10:00:14.880Z,17.74
2022-08-07T10:04:06.248Z,17.63
2022-08-07T10:07:53.532Z,17.64
2022-08-07T10:11:59.405Z,17.57
2022-08-07T10:15:30.000Z,17.59
2022-08-07T10:19:11.428Z,17.59
2022-08-07T10:22:34.266Z,17.66
2022-08-07T10:25:58.941Z,17.71
2022-08-07T10:29:11.489Z,17.85
2022-08-07T10:32:51.111Z,17.88
2022-08-07T10:36:36.172Z,17.93
2022-08-07T10:40:02.837Z,18.04
2022-08-07T10:43:35.086Z,18.19
2022-08-07T10:47:11.729Z,18.41
2022-08-07T10:50:34.466Z,18.68
2022-08-07T10:54:04.382Z,18.70
2022-08-07T10:57:11.539Z,18.93
2022-08-07T11:00:39.433Z,19.68
2022-08-07T11:04:16.960Z,20.15
2022-08-07T11:07:59.305Z,19.71
2022-08-07T11:11:14.011Z,19.27
2022-08-07T11:15:00.198Z,18.99
2022-08-07T11:18:40.316Z,19.38
2022-08-07T11:22:04.907Z,20.24
2022-08-07T11:25:25.662Z,20.88
2022-08-07T11:28:35.617Z,20.97
2022-08-07T11:32:12.616Z,20.44
2022-08-07T11:35:26.817Z,19.80
2022-08-07T11:38:53.869Z,19.48
2022-08-07T11:42:19.719Z,19.25
2022-08-07T11:45:35.683Z,19.14
2022-08-07T11:49:50.112Z,19.20
2022-08-07T11:53:15.683Z,19.90
2022-08-07T11:56:44.691Z,19.97
2022-08-07T12:00:12.046Z,19.65
2022-08-07T12:03:53.132Z,19.38
2022-08-07T12:07:07.952Z,19.26
2022-08-07T12:10:41.606Z,19.26
2022-08-07T12:14:03.779Z,19.31
2022-08-07T12:17:20.411Z,19.28
2022-08-07T12:20:45.111Z,19.34
2022-08-07T12:24:12.466Z,19.85
2022-08-07T12:28:08.605Z,20.20
2022-08-07T12:31:11.528Z,20.50
2022-08-07T12:34:21.885Z,20.72
2022-08-07T12:38:09.413Z,20.59
2022-08-07T12:40:57.266Z,20.49
2022-08-07T12:44:06.382Z,20.50
2022-08-07T12:47:21.425Z,20.74
2022-08-07T12:50:56.203Z,20.34
2022-08-07T12:54:37.878Z,20.47
2022-08-07T12:58:02.353Z,20.44
2022-08-07T13:01:14.516Z,20.96
2022-08-07T13:05:01.017Z,21.06
2022-08-07T13:08:32.341Z,20.59
2022-08-07T13:12:15.437Z,20.18
2022-08-07T13:15:38.253Z,19.88
2022-08-07T13:18:57.008Z,19.70
2022-08-07T13:22:19.537Z,19.60
2022-08-07T13:25:39.267Z,19.67
2022-08-07T13:28:58.450Z,20.00
2022-08-07T13:32:06.421Z,20.33
2022-08-07T13:36:01.317Z,20.63
2022-08-07T13:39:28.558Z,20.80
2022-08-07T13:42:42.952Z,20.92
2022-08-07T13:46:11.977Z,20.92
2022-08-07T13:50:32.841Z,20.83
2022-08-07T13:52:47.067Z,20.63
2022-08-07T13:55:54.727Z,20.48
2022-08-07T13:59:01.979Z,20.25
2022-08-07T14:02:15.078Z,20.04
2022-08-07T14:05:23.480Z,19.91
2022-08-07T14:08:29.566Z,19.81
2022-08-07T14:11:53.340Z,19.93
2022-08-07T14:15:06.967Z,20.07
2022-08-07T14:18:29.656Z,20.10
2022-08-07T14:22:03.410Z,20.11
2022-08-07T14:25:13.682Z,20.15
2022-08-07T14:28:19.189Z,20.06
2022-08-07T14:31:25.399Z,19.76
2022-08-07T14:34:48.196Z,19.68
2022-08-07T14:38:05.821Z,19.71
2022-08-07T14:41:15.090Z,19.96
2022-08-07T14:44:20.455Z,20.00
2022-08-07T14:47:32.712Z,19.88
2022-08-07T14:50:44.723Z,19.81
2022-08-07T14:54:30.906Z,19.99
2022-08-07T14:57:54.885Z,20.07
2022-08-07T15:00:44.470Z,19.94
2022-08-07T15:03:53.966Z,19.84
2022-08-07T15:06:58.926Z,19.68
2022-08-07T15:10:10.926Z,19.54
2022-08-07T15:16:54.877Z,19.71
2022-08-07T15:20:31.444Z,19.66
2022-08-07T15:23:53.596Z,19.48
2022-08-07T15:27:12.187Z,19.47
2022-08-07T15:30:19.904Z,19.50
2022-08-07T15:33:33.399Z,19.78
2022-08-07T15:37:03.949Z,19.94
2022-08-07T15:43:56.410Z,19.72
2022-08-07T15:47:08.958Z,19.76
2022-08-07T15:51:01.093Z,19.79
2022-08-07T15:53:52.905Z,19.77
2022-08-07T15:56:59.707Z,19.73
2022-08-07T16:00:06.705Z,19.68
2022-08-07T16:03:21.835Z,19.60
2022-08-07T16:06:51.599Z,19.52
2022-08-07T16:10:14.737Z,19.55
2022-08-07T16:13:59.246Z,19.59
2022-08-07T16:17:14.948Z,19.58
2022-08-07T16:20:41.567Z,19.50
2022-08-07T16:24:34.769Z,19.50
2022-08-07T16:27:47.335Z,19.40
2022-08-07T16:31:51.527Z,19.35
2022-08-07T16:34:55.837Z,19.20
2022-08-07T16:38:50.801Z,19.26
2022-08-07T16:42:16.408Z,19.29
2022-08-07T16:46:33.432Z,19.33
2022-08-07T16:50:26.583Z,19.39
2022-08-07T16:54:06.708Z,19.31
2022-08-07T16:58:01.557Z,19.21
2022-08-07T17:01:19.853Z,19.28
2022-08-07T17:05:01.282Z,19.29
2022-08-07T17:08:09.177Z,19.28
2022-08-07T17:11:22.315Z,19.18
2022-08-07T17:14:55.938Z,19.13
2022-08-07T17:18:14.300Z,19.10
2022-08-07T17:21:51.888Z,19.10
2022-08-07T17:25:16.239Z,19.05
2022-08-07T17:29:04.520Z,18.91
2022-08-07T17:32:35.556Z,18.89
2022-08-07T17:36:20.811Z,18.82
2022-08-07T17:40:08.253Z,18.70
2022-08-07T17:43:18.485Z,18.58
2022-08-07T17:46:35.905Z,18.51
2022-08-07T17:49:45.477Z,18.42
2022-08-07T17:54:00.095Z,18.33
2022-08-07T17:56:42.134Z,18.27
2022-08-07T18:00:01.199Z,18.28
2022-08-07T18:03:25.686Z,18.22
2022-08-07T18:06:38.637Z,18.14
2022-08-07T18:10:07.491Z,18.13
2022-08-07T18:13:17.503Z,18.08
2022-08-07T18:16:57.727Z,18.01
2022-08-07T18:21:06.351Z,17.98
2022-08-07T18:24:07.255Z,17.92
2022-08-07T18:27:46.104Z,17.83
2022-08-07T18:31:04.277Z,17.68
2022-08-07T18:34:35.928Z,17.62
2022-08-07T18:38:58.181Z,17.56
2022-08-07T18:41:45.821Z,17.47
2022-08-07T18:45:44.993Z,17.43
2022-08-07T18:50:19.571Z,17.33
2022-08-07T18:52:53.720Z,17.22
2022-08-07T18:56:20.326Z,17.01
2022-08-07T18:59:47.309Z,16.93
2022-08-07T19:03:11.880Z,16.84
2022-08-07T19:06:20.890Z,16.76
2022-08-07T19:09:57.542Z,16.66
2022-08-07T19:13:11.762Z,16.55
2022-08-07T19:17:06.760Z,16.55
2022-08-07T19:20:29.158Z,16.54
2022-08-07T19:23:59.454Z,16.52
2022-08-07T19:28:58.696Z,16.51
2022-08-07T19:31:04.233Z,16.44
2022-08-07T19:34:00.641Z,16.39
2022-08-07T19:37:17.137Z,16.31
2022-08-07T19:40:31.846Z,16.31
2022-08-07T19:43:48.721Z,16.29
2022-08-07T19:47:11.797Z,16.26
2022-08-07T19:50:44.206Z,16.23
2022-08-07T19:54:35.745Z,16.20
2022-08-07T19:58:00.289Z,16.17
2022-08-07T20:00:56.880Z,16.17
2022-08-07T20:04:01.434Z,16.12
2022-08-07T20:07:08.903Z,16.13
2022-08-07T20:10:38.059Z,16.05
2022-08-07T20:13:49.783Z,16.05
2022-08-07T20:16:57.152Z,16.02
2022-08-07T20:20:03.983Z,15.88
2022-08-07T20:23:10.786Z,15.81
2022-08-07T20:26:45.165Z,15.81
2022-08-07T20:29:58.472Z,15.79
2022-08-07T20:33:09.178Z,15.78
2022-08-07T20:36:32.395Z,15.72
2022-08-07T20:40:02.103Z,15.68
2022-08-07T20:43:09.743Z,15.67
2022-08-07T20:46:32.391Z,15.67
2022-08-07T20:49:57.832Z,15.64
2022-08-07T20:53:10.306Z,15.62
2022-08-07T20:56:16.585Z,15.62
2022-08-07T21:00:07.502Z,15.59
2022-08-07T21:02:58.063Z,15.61
2022-08-07T21:06:21.530Z,15.59
2022-08-07T21:09:51.507Z,15.61
2022-08-07T21:12:59.810Z,15.52
2022-08-07T21:16:06.185Z,15.46
2022-08-07T21:19:14.072Z,15.42
2022-08-07T21:22:19.901Z,15.36
2022-08-07T21:26:07.221Z,15.36
2022-08-07T21:29:37.462Z,15.31
2022-08-07T21:33:05.022Z,15.32
2022-08-07T21:36:31.189Z,15.30
2022-08-07T21:40:02.509Z,15.25
2022-08-07T21:43:10.790Z,15.24
2022-08-07T21:47:00.509Z,15.18
2022-08-07T21:50:14.488Z,15.19
2022-08-07T21:53:52.354Z,15.20
2022-08-07T21:57:31.407Z,15.14
2022-08-07T22:00:43.966Z,15.13
2022-08-07T22:03:57.567Z,15.11
2022-08-07T22:07:31.708Z,15.17
2022-08-07T22:10:59.599Z,15.09
2022-08-07T22:14:14.907Z,15.07
2022-08-07T22:17:37.686Z,15.06
2022-08-07T22:20:52.617Z,15.00
2022-08-07T22:24:33.008Z,14.98
2022-08-07T22:28:07.216Z,14.97
2022-08-07T22:31:45.397Z,15.04
2022-08-07T22:35:00.902Z,14.98
2022-08-07T22:38:40.564Z,14.90
2022-08-07T22:42:19.278Z,14.87
2022-08-07T22:46:22.002Z,14.85
2022-08-07T22:49:54.190Z,14.79
2022-08-07T22:53:07.910Z,14.75
2022-08-07T22:56:30.042Z,14.76
2022-08-07T23:00:12.781Z,14.65
2022-08-07T23:03:28.328Z,14.72
2022-08-07T23:07:00.763Z,14.81
2022-08-07T23:10:37.580Z,14.78
2022-08-07T23:14:16.293Z,14.73
2022-08-07T23:17:37.340Z,14.73
2022-08-07T23:21:23.349Z,14.69
2022-08-07T23:24:50.347Z,14.67
2022-08-07T23:28:20.531Z,14.71
2022-08-07T23:32:50.292Z,14.61
2022-08-07T23:35:19.991Z,14.68
2022-08-07T23:38:42.718Z,14.61
2022-08-07T23:42:04.337Z,14.50
2022-08-07T23:45:32.988Z,14.44
2022-08-07T23:49:15.652Z,14.46
2022-08-07T23:53:00.046Z,14.53
2022-08-07T23:56:31.366Z,14.53
